createdAt,value
2023-01-29T00:00:22.342Z,10.38
2023-01-29T00:02:49.163Z,9.43
2023-01-29T00:05:27.625Z,9.65
2023-01-29T00:07:56.543Z,10.68
2023-01-29T00:10:24.507Z,10.10
2023-01-29T00:12:51.854Z,10.27
2023-01-29T00:15:18.901Z,10.63
2023-01-29T00:17:45.505Z,9.32
2023-01-29T00:20:12.497Z,9.77
2023-01-29T00:22:39.148Z,9.38
2023-01-29T00:25:06.257Z,8.90
2023-01-29T00:27:32.892Z,10.65
2023-01-29T00:30:13.137Z,9.63
2023-01-29T00:32:40.808Z,9.63
2023-01-29T00:35:08.764Z,9.52
2023-01-29T00:37:35.751Z,8.93
2023-01-29T00:40:02.394Z,8.50
2023-01-29T00:42:47.476Z,9.82
2023-01-29T00:45:15.101Z,10.35
2023-01-29T00:47:41.775Z,9.30
2023-01-29T00:50:10.826Z,8.98
2023-01-29T00:52:37.863Z,8.98
2023-01-29T00:55:05.984Z,8.93
2023-01-29T00:57:33.983Z,9.13
2023-01-29T01:00:01.214Z,8.25
2023-01-29T01:02:46.797Z,8.25
2023-01-29T01:05:17.950Z,9.57
2023-01-29T01:07:52.349Z,9.75
2023-01-29T01:10:25.432Z,9.73
2023-01-29T01:15:25.490Z,11.48
2023-01-29T01:17:54.390Z,11.32
2023-01-29T01:20:21.225Z,10.35
2023-01-29T01:22:47.866Z,10.60
2023-01-29T01:25:14.694Z,11.80
2023-01-29T01:27:41.451Z,10.18
2023-01-29T01:30:14.980Z,10.23
2023-01-29T01:32:43.181Z,11.48
2023-01-29T01:35:11.419Z,11.02
2023-01-29T01:37:38.823Z,11.70
2023-01-29T01:40:12.932Z,10.70
2023-01-29T01:42:40.372Z,11.43
2023-01-29T01:45:17.718Z,10.10
2023-01-29T01:47:48.210Z,11.82
2023-01-29T01:50:37.350Z,10.52
2023-01-29T01:53:11.438Z,10.77
2023-01-29T01:55:48.387Z,10.70
2023-01-29T01:58:21.512Z,11.52
2023-01-29T02:03:33.324Z,9.60
2023-01-29T02:06:19.615Z,9.13
2023-01-29T02:09:23.695Z,10.13
2023-01-29T02:11:51.469Z,10.55
2023-01-29T02:14:18.135Z,10.77
2023-01-29T02:16:44.795Z,11.32
2023-01-29T02:19:27.912Z,11.40
2023-01-29T02:22:12.329Z,10.35
2023-01-29T02:24:58.489Z,10.80
2023-01-29T02:27:50.475Z,10.98
2023-01-29T02:30:38.681Z,10.90
2023-01-29T02:33:26.411Z,12.10
2023-01-29T02:36:17.727Z,10.90
2023-01-29T02:39:05.363Z,9.93
2023-01-29T02:41:47.508Z,10.20
2023-01-29T02:44:21.167Z,10.48
2023-01-29T02:47:00.339Z,12.18
2023-01-29T02:49:56.337Z,10.10
2023-01-29T02:52:34.016Z,9.52
2023-01-29T02:55:10.451Z,11.75
2023-01-29T02:57:41.579Z,11.73
2023-01-29T03:00:16.294Z,10.30
2023-01-29T03:02:49.168Z,12.15
2023-01-29T03:05:24.180Z,16.27
2023-01-29T03:07:56.549Z,14.55
2023-01-29T03:10:53.683Z,13.32
2023-01-29T03:13:33.055Z,14.90
2023-01-29T03:16:11.190Z,13.57
2023-01-29T03:18:46.147Z,12.73
2023-01-29T03:21:47.058Z,12.80
2023-01-29T03:24:36.077Z,12.57
2023-01-29T03:27:25.628Z,12.82
2023-01-29T03:30:13.082Z,12.45
2023-01-29T03:32:40.679Z,13.00
2023-01-29T03:35:10.817Z,13.02
2023-01-29T03:37:46.409Z,14.48
2023-01-29T03:40:14.326Z,13.07
2023-01-29T03:43:07.376Z,12.88
2023-01-29T03:45:47.116Z,12.43
2023-01-29T03:48:19.585Z,12.77
2023-01-29T03:51:16.837Z,19.67
2023-01-29T03:53:54.102Z,25.38
2023-01-29T03:56:43.624Z,13.05
2023-01-29T03:59:32.967Z,14.70
2023-01-29T04:02:28.177Z,16.10
2023-01-29T04:05:04.287Z,13.73
2023-01-29T04:07:33.554Z,15.10
2023-01-29T04:10:12.531Z,15.45
2023-01-29T04:12:45.916Z,15.73
2023-01-29T04:15:15.864Z,26.02
2023-01-29T04:17:47.627Z,15.43
2023-01-29T04:20:14.594Z,15.05
2023-01-29T04:22:46.377Z,17.23
2023-01-29T04:25:16.735Z,22.95
2023-01-29T04:28:13.461Z,17.55
2023-01-29T04:30:54.674Z,14.93
2023-01-29T04:33:40.546Z,36.22
2023-01-29T04:36:26.379Z,18.95
2023-01-29T04:39:21.179Z,17.27
2023-01-29T04:42:13.924Z,15.82
2023-01-29T04:45:00.799Z,16.10
2023-01-29T04:47:45.360Z,15.50
2023-01-29T04:50:19.144Z,15.70
2023-01-29T04:52:57.974Z,17.45
2023-01-29T04:55:40.464Z,18.75
2023-01-29T04:58:43.492Z,15.98
2023-01-29T05:01:16.526Z,32.33
2023-01-29T05:03:46.858Z,24.98
2023-01-29T05:06:15.105Z,23.95
2023-01-29T05:08:42.343Z,15.43
2023-01-29T05:11:09.711Z,20.73
2023-01-29T05:13:40.656Z,14.85
2023-01-29T05:16:18.238Z,14.38
2023-01-29T05:18:45.092Z,13.75
2023-01-29T05:21:11.801Z,13.57
2023-01-29T05:23:38.385Z,16.20
2023-01-29T05:26:05.790Z,14.07
2023-01-29T05:28:32.478Z,14.95
2023-01-29T05:30:59.229Z,14.85
2023-01-29T05:33:31.359Z,14.45
2023-01-29T05:36:00.753Z,14.13
2023-01-29T05:38:27.488Z,13.38
2023-01-29T05:40:54.486Z,14.07
2023-01-29T05:43:23.375Z,15.38
2023-01-29T05:45:55.142Z,14.98
2023-01-29T05:48:22.203Z,14.80
2023-01-29T05:50:49.062Z,14.43
2023-01-29T05:53:15.677Z,15.00
2023-01-29T05:55:47.111Z,14.25
2023-01-29T05:58:14.131Z,15.43
2023-01-29T06:00:41.698Z,14.52
2023-01-29T06:03:08.378Z,14.50
2023-01-29T06:05:38.638Z,14.45
2023-01-29T06:08:05.817Z,12.77
2023-01-29T06:10:32.579Z,11.70
2023-01-29T06:12:59.301Z,11.75
2023-01-29T06:15:26.681Z,13.55
2023-01-29T06:17:57.195Z,12.48
2023-01-29T06:20:24.695Z,12.05
2023-01-29T06:22:51.327Z,12.45
2023-01-29T06:25:17.895Z,10.65
2023-01-29T06:27:44.514Z,8.95
2023-01-29T06:30:11.788Z,8.85
2023-01-29T06:32:38.456Z,8.15
2023-01-29T06:35:05.562Z,7.22
2023-01-29T06:37:32.188Z,7.95
2023-01-29T06:39:58.805Z,7.63
2023-01-29T06:42:28.074Z,8.15
2023-01-29T06:44:58.021Z,7.68
2023-01-29T06:47:25.035Z,8.65
2023-01-29T06:49:52.294Z,9.63
2023-01-29T06:52:19.232Z,9.18
2023-01-29T06:54:46.077Z,8.73
2023-01-29T06:57:12.684Z,8.63
2023-01-29T06:59:39.300Z,8.43
2023-01-29T07:02:05.908Z,8.32
2023-01-29T07:04:32.525Z,9.63
2023-01-29T07:07:00.020Z,11.05
2023-01-29T07:09:26.694Z,11.18
2023-01-29T07:11:53.297Z,11.52
2023-01-29T07:14:20.147Z,11.77
2023-01-29T07:16:46.741Z,16.63
2023-01-29T07:19:13.719Z,27.00
2023-01-29T07:21:40.295Z,14.57
2023-01-29T07:24:07.144Z,38.42
2023-01-29T07:26:33.792Z,20.48
2023-01-29T07:29:00.383Z,14.82
2023-01-29T07:31:27.092Z,12.05
2023-01-29T07:33:53.815Z,12.30
2023-01-29T07:36:20.447Z,25.83
2023-01-29T07:38:51.257Z,12.82
2023-01-29T07:41:17.881Z,8.63
2023-01-29T07:43:44.468Z,8.73
2023-01-29T07:46:11.429Z,14.18
2023-01-29T07:48:38.095Z,11.65
2023-01-29T07:51:04.998Z,9.43
2023-01-29T07:53:31.683Z,7.95
2023-01-29T07:55:58.308Z,10.18
2023-01-29T07:58:25.005Z,15.05
2023-01-29T08:00:51.643Z,16.85
2023-01-29T08:03:20.317Z,17.50
2023-01-29T08:05:47.483Z,8.57
2023-01-29T08:08:14.647Z,7.63
2023-01-29T08:10:41.819Z,8.48
2023-01-29T08:13:09.254Z,7.75
2023-01-29T08:15:38.027Z,7.03
2023-01-29T08:18:05.956Z,7.65
2023-01-29T08:20:32.571Z,13.77
2023-01-29T08:23:04.639Z,9.13
2023-01-29T08:25:31.512Z,7.70
2023-01-29T08:27:59.010Z,8.25
2023-01-29T08:30:28.461Z,5.95
2023-01-29T08:32:55.739Z,5.63
2023-01-29T08:35:22.792Z,6.93
2023-01-29T08:37:56.861Z,8.85
2023-01-29T08:40:23.523Z,7.05
2023-01-29T08:42:50.150Z,6.85
2023-01-29T08:45:17.228Z,6.70
2023-01-29T08:47:50.276Z,8.13
2023-01-29T08:50:18.178Z,8.80
2023-01-29T08:52:45.903Z,8.07
2023-01-29T08:55:13.340Z,9.18
2023-01-29T08:57:39.991Z,8.82
2023-01-29T09:00:09.326Z,9.80
2023-01-29T09:02:36.020Z,9.18
2023-01-29T09:05:02.646Z,9.77
2023-01-29T09:07:30.151Z,9.32
2023-01-29T09:09:56.767Z,10.85
2023-01-29T09:12:23.515Z,11.32
2023-01-29T09:14:50.132Z,10.82
2023-01-29T09:17:16.691Z,8.80
2023-01-29T09:19:43.287Z,9.43
2023-01-29T09:22:11.824Z,10.65
2023-01-29T09:24:38.651Z,8.35
2023-01-29T09:27:06.241Z,10.07
2023-01-29T09:29:35.618Z,10.07
2023-01-29T09:32:04.751Z,10.50
2023-01-29T09:34:31.371Z,10.93
2023-01-29T09:36:57.960Z,11.60
2023-01-29T09:39:24.557Z,14.75
2023-01-29T09:42:14.644Z,8.70
2023-01-29T09:44:54.222Z,11.52
2023-01-29T09:47:25.786Z,10.07
2023-01-29T09:49:58.383Z,8.02
2023-01-29T09:52:36.018Z,5.90
2023-01-29T09:55:28.880Z,5.50
2023-01-29T09:58:01.104Z,5.28
2023-01-29T10:00:42.550Z,5.80
2023-01-29T10:03:24.285Z,6.18
2023-01-29T10:06:08.866Z,7.25
2023-01-29T10:09:05.672Z,6.88
2023-01-29T10:12:02.530Z,10.50
2023-01-29T10:15:06.686Z,11.23
2023-01-29T10:17:33.208Z,12.23
2023-01-29T10:20:37.029Z,10.43
2023-01-29T10:25:33.833Z,6.00
2023-01-29T10:28:01.692Z,6.43
2023-01-29T10:30:38.548Z,7.00
2023-01-29T10:33:12.339Z,7.72
2023-01-29T10:35:46.491Z,7.93
2023-01-29T10:38:28.319Z,6.97
2023-01-29T10:41:25.872Z,7.22
2023-01-29T10:44:17.192Z,7.38
2023-01-29T10:46:59.006Z,7.70
2023-01-29T10:49:40.745Z,7.90
2023-01-29T10:52:46.386Z,8.10
2023-01-29T10:55:12.935Z,9.07
2023-01-29T10:57:59.714Z,8.85
2023-01-29T11:00:39.313Z,7.82
2023-01-29T11:03:28.116Z,8.73
2023-01-29T11:06:20.996Z,8.73
2023-01-29T11:09:02.612Z,8.23
2023-01-29T11:11:41.495Z,7.10
2023-01-29T11:14:16.352Z,7.18
2023-01-29T11:16:45.766Z,9.05
2023-01-29T11:19:13.447Z,8.05
2023-01-29T11:22:00.139Z,8.07
2023-01-29T11:24:27.773Z,8.77
2023-01-29T11:26:59.669Z,9.10
2023-01-29T11:29:43.214Z,7.80
2023-01-29T11:32:32.815Z,8.20
2023-01-29T11:34:59.363Z,8.13
2023-01-29T11:37:46.498Z,8.10
2023-01-29T11:40:19.111Z,7.00
2023-01-29T11:42:47.180Z,7.78
2023-01-29T11:45:26.828Z,7.28
2023-01-29T11:47:55.928Z,7.18
2023-01-29T11:50:33.783Z,7.35
2023-01-29T11:53:01.641Z,6.97
2023-01-29T11:55:49.706Z,7.10
2023-01-29T11:58:29.535Z,6.00
2023-01-29T12:00:58.364Z,5.70
2023-01-29T12:03:40.838Z,7.35
2023-01-29T12:06:28.369Z,6.13
2023-01-29T12:09:00.697Z,6.47
2023-01-29T12:11:35.316Z,6.40
2023-01-29T12:14:05.002Z,6.93
2023-01-29T12:16:54.941Z,7.70
2023-01-29T12:19:51.823Z,6.20
2023-01-29T12:22:28.973Z,6.05
2023-01-29T12:25:19.064Z,5.97
2023-01-29T12:27:58.031Z,6.28
2023-01-29T12:30:31.570Z,5.25
2023-01-29T12:33:28.355Z,5.45
2023-01-29T12:36:21.692Z,6.43
2023-01-29T12:38:48.327Z,6.20
2023-01-29T12:41:37.804Z,6.65
2023-01-29T12:44:13.580Z,5.97
2023-01-29T12:46:50.491Z,6.47
2023-01-29T12:49:22.199Z,7.32
2023-01-29T12:51:59.272Z,6.35
2023-01-29T12:54:38.248Z,6.47
2023-01-29T12:57:10.729Z,6.40
2023-01-29T12:59:46.059Z,6.85
2023-01-29T13:02:16.976Z,5.70
2023-01-29T13:05:01.025Z,6.13
2023-01-29T13:07:40.178Z,6.00
2023-01-29T13:10:16.984Z,6.95
2023-01-29T13:12:54.652Z,5.60
2023-01-29T13:15:29.163Z,5.88
2023-01-29T13:18:13.762Z,5.95
2023-01-29T13:20:41.213Z,6.25
2023-01-29T13:23:22.812Z,6.40
2023-01-29T13:25:53.791Z,5.63
2023-01-29T13:28:24.314Z,6.00
2023-01-29T13:31:11.300Z,6.22
2023-01-29T13:33:40.730Z,6.40
2023-01-29T13:36:16.168Z,5.80
2023-01-29T13:38:45.220Z,6.15
2023-01-29T13:41:12.368Z,5.85
2023-01-29T13:43:43.339Z,5.40
2023-01-29T13:46:13.242Z,6.15
2023-01-29T13:48:48.508Z,6.00
2023-01-29T13:51:20.315Z,6.30
2023-01-29T13:54:04.454Z,6.65
2023-01-29T13:56:44.660Z,6.72
2023-01-29T13:59:56.445Z,6.38
2023-01-29T14:02:29.850Z,6.78
2023-01-29T14:05:30.592Z,6.80
2023-01-29T14:07:59.195Z,7.05
2023-01-29T14:10:31.070Z,7.45
2023-01-29T14:13:03.424Z,7.47
2023-01-29T14:15:37.288Z,7.55
2023-01-29T14:18:14.829Z,8.60
2023-01-29T14:20:52.326Z,7.70
2023-01-29T14:23:53.915Z,7.72
2023-01-29T14:26:26.246Z,9.18
2023-01-29T14:29:25.473Z,7.68
2023-01-29T14:32:25.028Z,8.23
2023-01-29T14:35:00.267Z,8.60
2023-01-29T14:37:40.196Z,8.98
2023-01-29T14:40:21.166Z,8.20
2023-01-29T14:43:02.837Z,9.10
2023-01-29T14:45:36.531Z,9.18
2023-01-29T14:48:11.876Z,9.98
2023-01-29T14:50:46.601Z,9.70
2023-01-29T14:53:30.101Z,10.93
2023-01-29T14:55:56.661Z,9.73
2023-01-29T14:58:38.290Z,9.88
2023-01-29T15:01:19.630Z,10.80
2023-01-29T15:04:00.090Z,10.40
2023-01-29T15:06:42.898Z,10.68
2023-01-29T15:09:36.311Z,11.85
2023-01-29T15:12:14.500Z,11.35
2023-01-29T15:15:22.849Z,10.95
2023-01-29T15:18:09.266Z,11.35
2023-01-29T15:20:38.690Z,11.95
2023-01-29T15:23:32.046Z,10.75
2023-01-29T15:26:02.025Z,12.40
2023-01-29T15:28:34.107Z,12.15
2023-01-29T15:31:06.455Z,11.90
2023-01-29T15:33:38.549Z,12.93
2023-01-29T15:36:07.714Z,12.27
2023-01-29T15:38:35.272Z,11.55
2023-01-29T15:41:14.240Z,13.07
2023-01-29T15:43:45.092Z,11.85
2023-01-29T15:46:15.822Z,12.02
2023-01-29T15:48:44.675Z,12.73
2023-01-29T15:51:17.495Z,12.07
2023-01-29T15:53:58.425Z,12.55
2023-01-29T15:56:50.495Z,13.32
2023-01-29T15:59:27.366Z,12.80
2023-01-29T16:01:54.331Z,13.95
2023-01-29T16:04:26.982Z,13.40
2023-01-29T16:06:55.521Z,13.27
2023-01-29T16:09:25.373Z,14.38
2023-01-29T16:11:54.742Z,12.80
2023-01-29T16:14:25.543Z,13.57
2023-01-29T16:16:52.969Z,13.05
2023-01-29T16:19:28.173Z,12.90
2023-01-29T16:22:01.506Z,13.63
2023-01-29T16:24:29.669Z,13.75
2023-01-29T16:27:16.597Z,13.95
2023-01-29T16:29:43.378Z,12.90
2023-01-29T16:32:13.817Z,12.93
2023-01-29T16:34:43.880Z,13.07
2023-01-29T16:37:29.651Z,12.57
2023-01-29T16:39:57.037Z,12.73
2023-01-29T16:42:28.821Z,13.73
2023-01-29T16:45:04.659Z,12.90
2023-01-29T16:47:43.734Z,12.77
2023-01-29T16:50:35.978Z,12.98
2023-01-29T16:53:20.908Z,12.30
2023-01-29T16:55:49.855Z,12.77
2023-01-29T16:58:19.117Z,13.13
2023-01-29T17:00:53.085Z,13.60
2023-01-29T17:03:20.422Z,12.88
2023-01-29T17:05:47.680Z,12.63
2023-01-29T17:08:25.767Z,11.52
2023-01-29T17:10:53.006Z,14.63
2023-01-29T17:13:29.857Z,14.57
2023-01-29T17:16:02.922Z,12.43
2023-01-29T17:20:56.215Z,11.95
2023-01-29T17:23:23.430Z,12.10
2023-01-29T17:25:50.210Z,14.55
2023-01-29T17:28:17.842Z,12.95
2023-01-29T17:30:50.629Z,12.88
2023-01-29T17:33:25.897Z,12.43
2023-01-29T17:35:52.737Z,12.43
2023-01-29T17:38:26.393Z,13.52
2023-01-29T17:41:00.042Z,12.90
2023-01-29T17:43:26.719Z,13.77
2023-01-29T17:45:53.393Z,14.60
2023-01-29T17:48:26.305Z,14.43
2023-01-29T17:50:58.947Z,14.00
2023-01-29T17:53:30.524Z,14.93
2023-01-29T17:56:03.156Z,14.20
2023-01-29T17:58:29.786Z,13.55
2023-01-29T18:00:56.405Z,13.82
2023-01-29T18:03:23.313Z,14.63
2023-01-29T18:05:50.534Z,13.38
2023-01-29T18:08:33.027Z,13.98
2023-01-29T18:11:00.892Z,15.43
2023-01-29T18:13:28.581Z,14.60
2023-01-29T18:15:55.258Z,16.30
2023-01-29T18:18:23.953Z,14.38
2023-01-29T18:20:50.868Z,16.00
2023-01-29T18:23:17.518Z,15.98
2023-01-29T18:25:44.864Z,14.82
2023-01-29T18:28:19.718Z,12.80
2023-01-29T18:30:47.554Z,15.88
2023-01-29T18:33:15.498Z,13.98
2023-01-29T18:35:44.635Z,13.07
2023-01-29T18:38:11.691Z,12.10
2023-01-29T18:40:38.588Z,15.45
2023-01-29T18:43:05.207Z,13.52
2023-01-29T18:45:32.073Z,14.25
2023-01-29T18:47:58.748Z,13.65
2023-01-29T18:50:26.462Z,13.55
2023-01-29T18:52:53.755Z,13.30
2023-01-29T18:55:20.911Z,12.60
2023-01-29T18:58:29.008Z,13.55
2023-01-29T19:00:34.639Z,12.43
2023-01-29T19:03:01.291Z,12.88
2023-01-29T19:05:27.983Z,11.93
2023-01-29T19:07:54.586Z,11.88
2023-01-29T19:10:21.182Z,12.65
2023-01-29T19:12:47.766Z,10.82
2023-01-29T19:15:14.781Z,11.98
2023-01-29T19:17:41.588Z,11.52
2023-01-29T19:20:09.709Z,11.38
2023-01-29T19:22:36.442Z,11.32
2023-01-29T19:25:03.056Z,11.57
2023-01-29T19:27:30.613Z,12.85
2023-01-29T19:29:58.252Z,11.95
2023-01-29T19:32:25.593Z,12.85
2023-01-29T19:34:52.334Z,14.55
2023-01-29T19:37:18.928Z,13.02
2023-01-29T19:39:45.618Z,12.60
2023-01-29T19:42:12.278Z,13.02
2023-01-29T19:44:39.944Z,11.45
2023-01-29T19:47:06.686Z,13.25
2023-01-29T19:49:34.204Z,11.23
2023-01-29T19:52:01.628Z,11.98
2023-01-29T19:54:29.647Z,11.43
2023-01-29T19:56:56.851Z,11.52
2023-01-29T19:59:23.516Z,12.13
2023-01-29T20:01:50.192Z,13.30
2023-01-29T20:04:16.876Z,12.07
2023-01-29T20:06:43.545Z,14.10
2023-01-29T20:09:10.133Z,13.85
2023-01-29T20:11:36.781Z,14.70
2023-01-29T20:14:03.495Z,13.68
2023-01-29T20:16:30.163Z,13.43
2023-01-29T20:19:13.909Z,12.25
2023-01-29T20:21:42.512Z,12.50
2023-01-29T20:24:12.439Z,11.93
2023-01-29T20:26:39.149Z,12.15
2023-01-29T20:29:06.616Z,12.48
2023-01-29T20:31:36.231Z,13.63
2023-01-29T20:34:02.938Z,13.13
2023-01-29T20:36:29.549Z,12.57
2023-01-29T20:38:56.273Z,11.88
2023-01-29T20:41:22.912Z,11.95
2023-01-29T20:43:50.983Z,12.43
2023-01-29T20:46:18.593Z,12.18
2023-01-29T20:48:45.180Z,12.40
2023-01-29T20:51:17.779Z,13.90
2023-01-29T20:53:46.231Z,14.30
2023-01-29T20:56:14.684Z,14.20
2023-01-29T20:58:41.473Z,13.38
2023-01-29T21:01:15.545Z,13.90
2023-01-29T21:03:42.593Z,13.73
2023-01-29T21:06:10.534Z,13.98
2023-01-29T21:08:38.518Z,13.40
2023-01-29T21:11:06.853Z,14.00
2023-01-29T21:13:33.564Z,12.93
2023-01-29T21:16:00.629Z,15.38
2023-01-29T21:18:27.224Z,12.95
2023-01-29T21:20:54.244Z,14.27
2023-01-29T21:23:21.516Z,13.40
2023-01-29T21:25:48.241Z,14.02
2023-01-29T21:28:15.734Z,14.10
2023-01-29T21:30:42.492Z,12.98
2023-01-29T21:33:09.172Z,13.20
2023-01-29T21:35:37.798Z,11.23
2023-01-29T21:38:04.752Z,12.30
2023-01-29T21:40:31.822Z,12.15
2023-01-29T21:43:15.460Z,12.57
2023-01-29T21:45:43.087Z,12.00
2023-01-29T21:48:11.340Z,12.95
2023-01-29T21:50:38.271Z,12.30
2023-01-29T21:53:05.062Z,12.57
2023-01-29T21:55:32.605Z,11.20
2023-01-29T21:58:00.414Z,11.50
2023-01-29T22:00:28.051Z,12.75
2023-01-29T22:02:54.739Z,11.18
2023-01-29T22:05:21.465Z,15.02
2023-01-29T22:07:49.461Z,13.95
2023-01-29T22:10:20.134Z,13.63
2023-01-29T22:12:47.840Z,14.13
2023-01-29T22:15:15.328Z,14.20
2023-01-29T22:17:42.401Z,13.10
2023-01-29T22:20:13.540Z,14.13
2023-01-29T22:22:40.454Z,14.23
2023-01-29T22:25:07.364Z,13.43
2023-01-29T22:27:34.503Z,20.42
2023-01-29T22:30:01.371Z,14.73
2023-01-29T22:32:28.281Z,14.07
2023-01-29T22:34:54.944Z,13.52
2023-01-29T22:37:21.708Z,14.15
2023-01-29T22:39:48.305Z,13.57
2023-01-29T22:42:14.935Z,13.55
2023-01-29T22:44:42.738Z,13.15
2023-01-29T22:47:09.386Z,14.75
2023-01-29T22:49:35.989Z,19.45
2023-01-29T22:52:11.753Z,14.40
2023-01-29T22:54:43.580Z,17.35
2023-01-29T22:57:12.331Z,16.67
2023-01-29T22:59:39.263Z,16.02
2023-01-29T23:02:06.612Z,16.30
2023-01-29T23:04:33.549Z,14.95
2023-01-29T23:07:00.221Z,13.98
2023-01-29T23:09:26.872Z,12.43
2023-01-29T23:11:53.529Z,13.30
2023-01-29T23:14:20.297Z,12.77
2023-01-29T23:16:46.886Z,13.38
2023-01-29T23:19:13.782Z,14.63
2023-01-29T23:21:40.395Z,12.45
2023-01-29T23:24:08.632Z,13.23
2023-01-29T23:26:53.805Z,13.02
2023-01-29T23:29:20.586Z,12.82
2023-01-29T23:31:47.440Z,13.07
2023-01-29T23:34:14.357Z,12.23
2023-01-29T23:36:41.759Z,12.05
2023-01-29T23:39:08.462Z,15.20
2023-01-29T23:41:35.883Z,11.98
2023-01-29T23:44:02.487Z,12.18
2023-01-29T23:46:29.144Z,14.05
2023-01-29T23:48:55.761Z,15.00
2023-01-29T23:51:22.377Z,13.90
2023-01-29T23:53:48.998Z,13.98
2023-01-29T23:56:15.683Z,13.70
2023-01-29T23:58:42.314Z,12.15
